createdAt,value
2023-04-11T00:00:36.314Z,19.00
2023-04-11T00:03:02.971Z,19.00
2023-04-11T00:05:30.490Z,18.50
2023-04-11T00:10:50.789Z,20.00
2023-04-11T00:13:18.248Z,19.50
2023-04-11T00:15:44.734Z,17.50
2023-04-11T00:18:11.220Z,18.50
2023-04-11T00:20:37.746Z,17.50
2023-04-11T00:25:48.424Z,20.00
2023-04-11T00:28:15.825Z,20.50
2023-04-11T00:30:42.354Z,20.00
2023-04-11T00:33:09.029Z,21.50
2023-04-11T00:35:35.555Z,20.00
2023-04-11T00:38:02.155Z,19.00
2023-04-11T00:40:28.955Z,20.00
2023-04-11T00:42:55.438Z,18.00
2023-04-11T00:45:21.956Z,19.00
2023-04-11T00:47:49.370Z,23.00
2023-04-11T00:50:15.969Z,20.00
2023-04-11T00:52:42.447Z,19.00
2023-04-11T00:55:09.028Z,20.00
2023-04-11T00:57:35.496Z,21.00
2023-04-11T01:00:01.992Z,22.00
2023-04-11T01:02:29.632Z,22.00
2023-04-11T01:04:56.206Z,22.00
2023-04-11T01:07:22.699Z,22.00
2023-04-11T01:09:49.195Z,22.00
2023-04-11T01:12:15.684Z,22.00
2023-04-11T01:14:43.094Z,22.50
2023-04-11T01:17:10.562Z,22.50
2023-04-11T01:19:37.994Z,23.00
2023-04-11T01:22:04.499Z,22.00
2023-04-11T01:24:30.998Z,23.00
2023-04-11T01:26:57.526Z,22.00
2023-04-11T01:29:24.026Z,23.00
2023-04-11T01:31:50.539Z,23.00
2023-04-11T01:34:17.043Z,22.00
2023-04-11T01:36:43.630Z,20.50
2023-04-11T01:39:10.163Z,22.00
2023-04-11T01:41:36.627Z,23.00
2023-04-11T01:44:03.114Z,23.00
2023-04-11T01:46:30.598Z,22.50
2023-04-11T01:48:57.318Z,23.00
2023-04-11T01:51:23.951Z,22.00
2023-04-11T01:53:50.479Z,23.00
2023-04-11T01:59:03.129Z,23.67
2023-04-11T02:01:29.725Z,23.50
2023-04-11T02:03:56.308Z,23.00
2023-04-11T02:06:23.779Z,22.67
2023-04-11T02:08:51.201Z,23.67
2023-04-11T02:14:13.384Z,23.67
2023-04-11T02:16:39.899Z,22.00
2023-04-11T02:19:06.385Z,23.00
2023-04-11T02:21:32.852Z,23.00
2023-04-11T02:24:00.866Z,23.00
2023-04-11T02:29:12.440Z,23.00
2023-04-11T02:31:40.018Z,23.67
2023-04-11T02:34:07.476Z,22.50
2023-04-11T02:36:33.980Z,21.50
2023-04-11T02:39:00.556Z,23.00
2023-04-11T02:44:11.256Z,22.50
2023-04-11T02:46:38.737Z,25.33
2023-04-11T02:49:05.209Z,23.00
2023-04-11T02:51:31.690Z,26.00
2023-04-11T02:53:59.090Z,22.00
2023-04-11T02:59:21.265Z,23.00
2023-04-11T03:01:47.846Z,22.50
2023-04-11T03:04:14.380Z,23.00
2023-04-11T03:06:40.874Z,22.00
2023-04-11T03:09:07.343Z,24.00
2023-04-11T03:14:18.994Z,23.00
2023-04-11T03:16:45.475Z,23.00
2023-04-11T03:19:12.034Z,22.00
2023-04-11T03:21:38.509Z,24.00
2023-04-11T03:24:05.926Z,23.67
2023-04-11T03:29:27.204Z,23.00
2023-04-11T03:31:53.688Z,23.00
2023-04-11T03:34:21.130Z,21.50
2023-04-11T03:36:47.633Z,23.00
2023-04-11T03:39:15.062Z,23.00
2023-04-11T03:44:35.367Z,22.00
2023-04-11T03:47:01.946Z,22.00
2023-04-11T03:49:28.487Z,22.00
2023-04-11T03:51:55.894Z,21.00
2023-04-11T03:54:22.365Z,22.50
2023-04-11T03:59:33.898Z,23.00
2023-04-11T04:02:00.463Z,21.00
2023-04-11T04:04:27.076Z,22.00
2023-04-11T04:06:53.599Z,20.50
2023-04-11T04:09:21.048Z,22.00
2023-04-11T04:14:31.744Z,20.50
2023-04-11T04:16:58.266Z,19.00
2023-04-11T04:19:24.757Z,22.50
2023-04-11T04:21:52.172Z,28.00
2023-04-11T04:24:19.592Z,20.50
2023-04-11T04:29:40.863Z,27.00
2023-04-11T04:32:07.795Z,24.50
2023-04-11T04:34:34.345Z,21.00
2023-04-11T04:37:00.808Z,23.50
2023-04-11T04:39:29.016Z,33.50
2023-04-11T04:41:55.490Z,27.00
2023-04-11T04:44:22.889Z,24.67
2023-04-11T04:46:50.308Z,23.50
2023-04-11T04:49:17.717Z,22.00
2023-04-11T04:51:45.134Z,23.50
2023-04-11T04:54:12.626Z,26.67
2023-04-11T04:56:40.043Z,26.00
2023-04-11T04:59:07.432Z,24.00
2023-04-11T05:01:34.911Z,16.33
2023-04-11T05:04:02.921Z,27.00
2023-04-11T05:06:29.681Z,27.00
2023-04-11T05:08:57.102Z,23.33
2023-04-11T05:11:24.499Z,23.50
2023-04-11T05:13:50.987Z,25.00
2023-04-11T05:16:18.434Z,21.50
2023-04-11T05:18:44.887Z,4.00
2023-04-11T05:21:11.364Z,28.00
2023-04-11T05:23:39.475Z,30.50
2023-04-11T05:26:07.212Z,26.00
2023-04-11T05:28:33.752Z,25.50
2023-04-11T05:31:00.247Z,26.00
2023-04-11T05:33:26.838Z,23.00
2023-04-11T05:35:53.752Z,23.00
2023-04-11T05:38:20.251Z,22.00
2023-04-11T05:40:48.005Z,26.00
2023-04-11T05:43:14.748Z,30.00
2023-04-11T05:45:42.456Z,26.33
2023-04-11T05:48:09.312Z,26.00
2023-04-11T05:50:36.191Z,22.00
2023-04-11T05:53:02.995Z,25.00
2023-04-11T05:55:30.413Z,24.00
2023-04-11T05:57:57.801Z,24.00
2023-04-11T06:03:20.474Z,21.50
2023-04-11T06:05:47.028Z,22.00
2023-04-11T06:08:14.498Z,22.00
2023-04-11T06:10:40.948Z,22.50
2023-04-11T06:13:07.475Z,22.50
2023-04-11T06:18:19.239Z,22.00
2023-04-11T06:20:45.720Z,19.00
2023-04-11T06:23:12.193Z,20.00
2023-04-11T06:25:39.659Z,26.33
2023-04-11T06:28:07.095Z,24.00
2023-04-11T06:33:28.448Z,19.00
2023-04-11T06:35:54.940Z,20.00
2023-04-11T06:38:21.415Z,18.00
2023-04-11T06:40:47.953Z,20.50
2023-04-11T06:43:15.327Z,18.00
2023-04-11T06:48:25.737Z,17.00
2023-04-11T06:50:53.148Z,14.67
2023-04-11T06:53:20.547Z,14.00
2023-04-11T06:55:47.931Z,17.00
2023-04-11T06:58:14.379Z,13.00
2023-04-11T07:03:35.997Z,15.67
2023-04-11T07:06:02.828Z,15.00
2023-04-11T07:08:30.219Z,15.67
2023-04-11T07:10:57.582Z,14.00
2023-04-11T07:13:24.974Z,15.67
2023-04-11T07:18:36.360Z,14.00
2023-04-11T07:21:02.859Z,15.00
2023-04-11T07:23:30.256Z,12.00
2023-04-11T07:25:56.735Z,14.00
2023-04-11T07:28:24.101Z,13.00
2023-04-11T07:33:45.448Z,14.00
2023-04-11T07:36:12.058Z,14.50
2023-04-11T07:38:39.587Z,13.67
2023-04-11T07:41:07.005Z,12.33
2023-04-11T07:43:34.378Z,16.00
2023-04-11T07:48:46.062Z,14.50
2023-04-11T07:51:13.466Z,13.33
2023-04-11T07:53:40.843Z,14.67
2023-04-11T07:56:07.312Z,16.00
2023-04-11T07:58:34.706Z,16.33
2023-04-11T08:03:55.814Z,17.00
2023-04-11T08:06:23.616Z,14.67
2023-04-11T08:08:51.795Z,13.00
2023-04-11T08:11:19.218Z,26.00
2023-04-11T08:13:45.742Z,22.00
2023-04-11T08:18:56.997Z,12.33
2023-04-11T08:21:23.510Z,10.00
2023-04-11T08:23:53.068Z,10.50
2023-04-11T08:26:21.368Z,10.00
2023-04-11T08:28:47.841Z,9.50
2023-04-11T08:34:01.058Z,9.00
2023-04-11T08:36:28.340Z,11.00
2023-04-11T08:38:55.630Z,10.00
2023-04-11T08:41:22.941Z,13.00
2023-04-11T08:43:52.872Z,11.00
2023-04-11T08:49:13.308Z,8.00
2023-04-11T08:51:42.552Z,9.33
2023-04-11T08:54:12.537Z,9.86
2023-04-11T08:56:38.935Z,9.50
2023-04-11T08:59:05.395Z,7.00
2023-04-11T09:04:15.941Z,6.67
2023-04-11T09:06:42.414Z,6.00
2023-04-11T09:09:08.873Z,8.00
2023-04-11T09:11:39.085Z,12.67
2023-04-11T09:14:08.306Z,10.00
2023-04-11T09:19:28.785Z,5.33
2023-04-11T09:21:56.031Z,7.75
2023-04-11T09:24:22.473Z,13.00
2023-04-11T09:26:51.675Z,10.33
2023-04-11T09:29:18.891Z,3.50
2023-04-11T09:34:41.204Z,6.00
2023-04-11T09:37:09.855Z,6.50
2023-04-11T09:39:36.216Z,7.00
2023-04-11T09:42:02.604Z,7.00
2023-04-11T09:44:28.971Z,6.00
2023-04-11T09:46:55.363Z,6.00
2023-04-11T09:49:21.766Z,5.67
2023-04-11T09:51:48.114Z,4.67
2023-04-11T09:54:14.495Z,4.00
2023-04-11T09:56:40.858Z,4.33
2023-04-11T09:59:07.179Z,4.00
2023-04-11T10:01:33.629Z,3.67
2023-04-11T10:04:00.251Z,4.00
2023-04-11T10:06:26.798Z,4.00
2023-04-11T10:08:53.142Z,4.00
2023-04-11T10:11:19.515Z,5.00
2023-04-11T10:13:45.870Z,5.00
2023-04-11T10:16:12.302Z,5.00
2023-04-11T10:18:38.698Z,4.33
2023-04-11T10:21:05.037Z,6.00
2023-04-11T10:23:31.372Z,6.00
2023-04-11T10:25:58.604Z,8.00
2023-04-11T10:28:24.989Z,6.33
2023-04-11T10:30:51.365Z,6.33
2023-04-11T10:33:17.867Z,7.50
2023-04-11T10:35:44.420Z,8.00
2023-04-11T10:38:11.680Z,7.00
2023-04-11T10:40:38.910Z,5.75
2023-04-11T10:43:05.330Z,7.67
2023-04-11T10:45:31.688Z,6.00
2023-04-11T10:47:58.097Z,8.00
2023-04-11T10:53:18.433Z,7.00
2023-04-11T10:55:44.797Z,7.00
2023-04-11T10:58:11.240Z,9.00
2023-04-11T11:00:39.549Z,8.60
2023-04-11T11:03:06.129Z,9.00
2023-04-11T11:08:26.698Z,8.00
2023-04-11T11:10:53.219Z,9.50
2023-04-11T11:13:22.799Z,9.00
2023-04-11T11:15:50.036Z,7.75
2023-04-11T11:18:17.296Z,7.50
2023-04-11T11:23:27.324Z,6.00
2023-04-11T11:25:53.753Z,7.00
2023-04-11T11:28:21.000Z,7.50
2023-04-11T11:30:47.329Z,7.00
2023-04-11T11:33:13.730Z,7.50
2023-04-11T11:38:27.854Z,8.50
2023-04-11T11:40:54.222Z,7.00
2023-04-11T11:43:20.948Z,9.00
2023-04-11T11:45:47.443Z,8.50
2023-04-11T11:48:14.706Z,8.00
2023-04-11T11:53:35.922Z,9.00
2023-04-11T11:56:02.367Z,5.00
2023-04-11T11:58:30.638Z,8.40
2023-04-11T12:00:57.906Z,6.50
2023-04-11T12:03:24.723Z,7.00
2023-04-11T12:08:47.568Z,10.00
2023-04-11T12:11:14.174Z,10.00
2023-04-11T12:13:43.425Z,8.50
2023-04-11T12:16:12.729Z,8.50
2023-04-11T12:18:41.102Z,9.60
2023-04-11T12:24:01.519Z,9.50
2023-04-11T12:26:29.931Z,10.00
2023-04-11T12:28:58.353Z,8.60
2023-04-11T12:31:26.905Z,9.40
2023-04-11T12:33:54.547Z,17.67
2023-04-11T12:39:05.400Z,15.00
2023-04-11T12:41:32.723Z,20.50
2023-04-11T12:43:59.347Z,20.00
2023-04-11T12:46:25.895Z,19.00
2023-04-11T12:48:53.274Z,14.67
2023-04-11T12:54:13.603Z,19.00
2023-04-11T12:56:41.075Z,17.67
2023-04-11T12:59:07.676Z,14.00
2023-04-11T13:01:35.031Z,12.00
2023-04-11T13:04:01.640Z,12.00
2023-04-11T13:09:12.210Z,12.00
2023-04-11T13:11:38.636Z,11.00
2023-04-11T13:14:06.976Z,11.00
2023-04-11T13:16:35.364Z,10.60
2023-04-11T13:19:02.697Z,11.00
2023-04-11T13:24:23.812Z,10.00
2023-04-11T13:26:51.164Z,12.33
2023-04-11T13:29:18.423Z,10.00
2023-04-11T13:31:45.730Z,11.67
2023-04-11T13:34:13.044Z,10.33
2023-04-11T13:39:24.478Z,12.67
2023-04-11T13:41:50.897Z,11.50
2023-04-11T13:44:17.338Z,11.50
2023-04-11T13:46:47.282Z,10.57
2023-04-11T13:49:13.700Z,10.00
2023-04-11T13:54:24.875Z,10.67
2023-04-11T13:56:51.402Z,11.00
2023-04-11T13:59:18.773Z,10.67
2023-04-11T14:01:45.500Z,11.50
2023-04-11T14:04:13.025Z,10.67
2023-04-11T14:09:37.393Z,11.67
2023-04-11T14:12:04.721Z,11.67
2023-04-11T14:14:32.010Z,11.00
2023-04-11T14:16:58.487Z,10.00
2023-04-11T14:19:24.989Z,11.50
2023-04-11T14:24:36.437Z,9.00
2023-04-11T14:27:03.730Z,11.67
2023-04-11T14:29:31.173Z,18.00
2023-04-11T14:31:57.687Z,19.50
2023-04-11T14:34:25.179Z,15.00
2023-04-11T14:36:51.619Z,12.00
2023-04-11T14:39:19.027Z,20.00
2023-04-11T14:41:45.509Z,19.00
2023-04-11T14:44:12.869Z,14.00
2023-04-11T14:46:40.229Z,14.00
2023-04-11T14:49:06.697Z,11.00
2023-04-11T14:51:34.148Z,16.67
2023-04-11T14:54:00.665Z,21.00
2023-04-11T14:56:27.166Z,20.00
2023-04-11T14:58:54.614Z,17.67
2023-04-11T15:01:22.026Z,15.33
2023-04-11T15:03:48.606Z,13.00
2023-04-11T15:06:15.155Z,13.00
2023-04-11T15:08:42.621Z,16.33
2023-04-11T15:11:09.086Z,16.00
2023-04-11T15:13:36.540Z,15.33
2023-04-11T15:16:03.082Z,13.00
2023-04-11T15:18:29.552Z,14.00
2023-04-11T15:20:55.979Z,14.00
2023-04-11T15:23:23.357Z,13.67
2023-04-11T15:25:49.916Z,13.00
2023-04-11T15:28:17.296Z,22.50
2023-04-11T15:30:43.835Z,19.50
2023-04-11T15:33:11.204Z,15.00
2023-04-11T15:35:39.744Z,15.33
2023-04-11T15:38:06.245Z,17.50
2023-04-11T15:40:32.731Z,22.00
2023-04-11T15:43:00.242Z,20.67
2023-04-11T15:45:26.728Z,18.50
2023-04-11T15:47:53.248Z,17.50
2023-04-11T15:50:19.777Z,28.00
2023-04-11T15:52:46.249Z,23.00
2023-04-11T15:58:06.649Z,17.50
2023-04-11T16:00:34.068Z,17.00
2023-04-11T16:03:01.587Z,14.00
2023-04-11T16:05:29.081Z,14.67
2023-04-11T16:07:55.561Z,13.00
2023-04-11T16:13:17.933Z,13.33
2023-04-11T16:15:45.367Z,15.00
2023-04-11T16:18:12.754Z,20.50
2023-04-11T16:20:39.215Z,16.00
2023-04-11T16:23:06.655Z,14.33
2023-04-11T16:28:18.198Z,13.00
2023-04-11T16:30:45.623Z,24.00
2023-04-11T16:33:12.126Z,15.50
2023-04-11T16:35:39.570Z,16.67
2023-04-11T16:38:06.113Z,20.00
2023-04-11T16:43:18.494Z,20.00
2023-04-11T16:45:45.039Z,18.50
2023-04-11T16:48:11.513Z,14.50
2023-04-11T16:50:38.108Z,15.00
2023-04-11T16:53:05.502Z,14.67
2023-04-11T16:58:16.808Z,13.33
2023-04-11T17:00:43.243Z,12.00
2023-04-11T17:03:09.920Z,10.50
2023-04-11T17:05:36.410Z,11.00
2023-04-11T17:08:02.884Z,12.00
2023-04-11T17:13:23.073Z,24.00
2023-04-11T17:15:49.623Z,28.00
2023-04-11T17:18:17.024Z,20.50
2023-04-11T17:20:43.585Z,18.50
2023-04-11T17:23:10.210Z,14.00
2023-04-11T17:28:31.497Z,13.33
2023-04-11T17:30:57.914Z,10.00
2023-04-11T17:33:24.414Z,8.50
2023-04-11T17:35:51.704Z,10.33
2023-04-11T17:38:18.198Z,9.00
2023-04-11T17:43:40.586Z,6.00
2023-04-11T17:46:07.114Z,5.33
2023-04-11T17:48:33.498Z,6.33
2023-04-11T17:51:01.778Z,6.80
2023-04-11T17:53:28.169Z,7.67
2023-04-11T17:58:38.457Z,5.67
2023-04-11T18:01:04.862Z,6.00
2023-04-11T18:03:32.337Z,13.00
2023-04-11T18:05:59.000Z,22.00
2023-04-11T18:08:35.451Z,16.50
2023-04-11T18:14:04.533Z,13.33
2023-04-11T18:16:31.178Z,26.00
2023-04-11T18:18:57.852Z,22.00
2023-04-11T18:21:24.378Z,19.50
2023-04-11T18:23:51.809Z,16.67
2023-04-11T18:29:04.131Z,13.67
2023-04-11T18:31:30.652Z,18.00
2023-04-11T18:33:57.591Z,21.00
2023-04-11T18:36:25.704Z,17.50
2023-04-11T18:38:53.573Z,13.00
2023-04-11T18:44:14.412Z,13.00
2023-04-11T18:46:40.952Z,13.00
2023-04-11T18:49:07.898Z,21.00
2023-04-11T18:51:34.708Z,20.00
2023-04-11T18:54:01.198Z,18.50
2023-04-11T18:59:23.581Z,14.00
2023-04-11T19:01:52.406Z,13.00
2023-04-11T19:04:20.553Z,13.00
2023-04-11T19:06:48.109Z,9.67
2023-04-11T19:09:14.661Z,12.50
2023-04-11T19:14:35.990Z,12.00
2023-04-11T19:17:02.990Z,10.00
2023-04-11T19:19:30.335Z,10.67
2023-04-11T19:21:57.605Z,10.67
2023-04-11T19:24:25.955Z,10.00
2023-04-11T19:29:36.197Z,20.00
2023-04-11T19:32:03.707Z,16.33
2023-04-11T19:34:30.249Z,13.00
2023-04-11T19:36:57.630Z,15.00
2023-04-11T19:39:24.083Z,11.00
2023-04-11T19:41:50.573Z,20.00
2023-04-11T19:44:17.208Z,16.50
2023-04-11T19:46:43.674Z,14.00
2023-04-11T19:49:11.061Z,12.67
2023-04-11T19:51:38.480Z,14.33
2023-04-11T19:54:04.986Z,12.00
2023-04-11T19:56:31.489Z,12.00
2023-04-11T19:58:57.925Z,12.50
2023-04-11T20:01:24.543Z,21.00
2023-04-11T20:03:51.130Z,22.00
2023-04-11T20:06:18.569Z,18.00
2023-04-11T20:08:45.056Z,19.00
2023-04-11T20:11:12.477Z,16.00
2023-04-11T20:13:39.861Z,14.67
2023-04-11T20:16:07.120Z,9.67
2023-04-11T20:18:34.516Z,12.00
2023-04-11T20:21:01.953Z,12.67
2023-04-11T20:23:30.255Z,11.67
2023-04-11T20:25:58.663Z,12.33
2023-04-11T20:28:26.026Z,11.33
2023-04-11T20:30:53.411Z,13.33
2023-04-11T20:33:20.963Z,12.00
2023-04-11T20:35:48.414Z,11.67
2023-04-11T20:38:15.786Z,11.33
2023-04-11T20:40:43.073Z,8.00
2023-04-11T20:43:10.380Z,12.67
2023-04-11T20:45:36.869Z,11.00
2023-04-11T20:48:03.346Z,12.00
2023-04-11T20:50:29.805Z,12.00
2023-04-11T20:52:57.095Z,11.67
2023-04-11T20:55:24.370Z,12.00
2023-04-11T20:57:51.694Z,10.67
2023-04-11T21:03:04.181Z,11.00
2023-04-11T21:05:30.657Z,12.00
2023-04-11T21:07:57.115Z,12.50
2023-04-11T21:10:24.448Z,12.00
2023-04-11T21:12:50.896Z,10.50
2023-04-11T21:18:02.192Z,10.67
2023-04-11T21:20:28.795Z,11.00
2023-04-11T21:22:56.104Z,11.33
2023-04-11T21:25:22.618Z,12.00
2023-04-11T21:27:49.901Z,11.33
2023-04-11T21:33:00.591Z,11.00
2023-04-11T21:35:27.165Z,10.00
2023-04-11T21:37:54.417Z,9.67
2023-04-11T21:40:23.486Z,0.00
2023-04-11T21:42:51.790Z,9.00
2023-04-11T21:48:13.207Z,12.33
2023-04-11T21:50:39.716Z,21.00
2023-04-11T21:53:07.187Z,24.00
2023-04-11T21:55:34.661Z,24.67
2023-04-11T21:58:02.087Z,19.50
2023-04-11T22:03:13.874Z,17.00
2023-04-11T22:05:40.581Z,16.00
2023-04-11T22:08:07.065Z,15.00
2023-04-11T22:10:41.372Z,11.67
2023-04-11T22:13:13.709Z,13.00
2023-04-11T22:18:25.792Z,12.00
2023-04-11T22:20:53.047Z,11.00
2023-04-11T22:23:19.549Z,12.00
2023-04-11T22:25:47.836Z,8.40
2023-04-11T22:28:15.090Z,10.00
2023-04-11T22:33:36.563Z,9.00
2023-04-11T22:36:04.929Z,9.00
2023-04-11T22:38:31.350Z,8.00
2023-04-11T22:40:57.796Z,9.00
2023-04-11T22:43:25.047Z,9.67
2023-04-11T22:48:38.432Z,10.00
2023-04-11T22:51:05.672Z,9.33
2023-04-11T22:53:33.991Z,9.60
2023-04-11T22:56:00.413Z,8.00
2023-04-11T22:58:26.931Z,8.00
2023-04-11T23:03:37.945Z,8.00
2023-04-11T23:06:06.233Z,8.40
2023-04-11T23:08:34.541Z,9.20
2023-04-11T23:11:01.008Z,9.50
2023-04-11T23:13:29.286Z,9.40
2023-04-11T23:18:50.007Z,10.00
2023-04-11T23:21:17.318Z,11.00
2023-04-11T23:23:43.769Z,9.00
2023-04-11T23:26:10.268Z,10.00
2023-04-11T23:28:36.680Z,8.00
2023-04-11T23:33:47.226Z,8.00
2023-04-11T23:36:14.472Z,10.00
2023-04-11T23:38:40.950Z,8.00
2023-04-11T23:41:09.237Z,8.40
2023-04-11T23:43:35.710Z,10.00
2023-04-11T23:46:02.295Z,7.50
2023-04-11T23:48:30.600Z,8.00
2023-04-11T23:50:57.924Z,7.67
2023-04-11T23:53:27.089Z,6.67
2023-04-11T23:55:53.596Z,8.00
2023-04-11T23:58:20.867Z,8.33
